This is the latest recevied weather packets stored in our database for station/object RN1M-13. If no packets are shown the sender has not sent any weather packets the latest 10 day(s).
| Time | Temp. | Humidity | Pressure | Rain* | Wind** | Luminosity | Snow |
|---|---|---|---|---|---|---|---|
| 1777601905 | 6.11° C | 100% | 1008.4 hPa | - | - | - | - |
| 1777601007 | 5.56° C | 100% | 1009.4 hPa | - | - | - | - |
| 1777600109 | 6.11° C | 100% | 1008.7 hPa | - | - | - | - |
| 1777599209 | 6.11° C | 100% | 1008.6 hPa | - | - | - | - |
| 1777598309 | 5.56° C | 100% | 1008.8 hPa | - | - | - | - |
| 1777597409 | 6.11° C | 100% | 1008.9 hPa | - | - | - | - |
| 1777596509 | 5.56° C | 100% | 1009.5 hPa | - | - | - | - |
| 1777595609 | 6.11° C | 100% | 1009.7 hPa | - | - | - | - |
| 1777594709 | 6.67° C | 100% | 1010.2 hPa | - | - | - | - |
| 1777593809 | 6.11° C | 100% | 1010.8 hPa | - | - | - | - |
| 1777592909 | 6.11° C | 100% | 1010.9 hPa | - | - | - | - |
| 1777592009 | 6.11° C | 100% | 1011.1 hPa | - | - | - | - |
| 1777591109 | 6.11° C | 100% | 1011.4 hPa | - | - | - | - |
| 1777590211 | 5.56° C | 100% | 1013.2 hPa | - | - | - | - |
| 1777589314 | 6.11° C | 100% | 1012.1 hPa | - | - | - | - |
| 1777588414 | 6.11° C | 100% | 1012.7 hPa | - | - | - | - |
| 1777587514 | 6.11° C | 100% | 1013 hPa | - | - | - | - |
| 1777586614 | 6.67° C | 100% | 1013.4 hPa | - | - | - | - |
| 1777585714 | 6.67° C | 100% | 1013.5 hPa | - | - | - | - |
| 1777584814 | 6.67° C | 100% | 1013.2 hPa | - | - | - | - |
| 1777583914 | 6.67° C | 100% | 1013.2 hPa | - | - | - | - |
| 1777583014 | 6.11° C | 100% | 1013.3 hPa | - | - | - | - |
| 1777582114 | 6.67° C | 100% | 1013.1 hPa | - | - | - | - |
| 1777581214 | 6.67° C | 100% | 1013.2 hPa | - | - | - | - |
| 1777580314 | 7.22° C | 100% | 1013 hPa | - | - | - | - |
* Rain since midnight (hover to see other rain measurements)
** Current wind speed in m/s (hover to see current wind gust speed)